createdAt,value
2016-09-01T00:00:11.882Z,24.85
2016-09-01T00:00:46.178Z,24.77
2016-09-01T00:01:20.496Z,24.74
2016-09-01T00:01:54.801Z,24.74
2016-09-01T00:02:29.083Z,24.78
2016-09-01T00:03:03.370Z,24.69
2016-09-01T00:03:37.666Z,24.75
2016-09-01T00:04:11.951Z,24.7
2016-09-01T00:04:46.236Z,24.78
2016-09-01T00:05:20.535Z,24.75
2016-09-01T00:05:54.927Z,24.7
2016-09-01T00:06:29.210Z,24.75
2016-09-01T00:07:03.538Z,24.67
2016-09-01T00:07:37.834Z,24.67
2016-09-01T00:08:12.129Z,24.7
2016-09-01T00:08:46.421Z,24.7
2016-09-01T00:09:20.729Z,24.77
2016-09-01T00:09:55.025Z,24.75
2016-09-01T00:10:29.327Z,24.66
2016-09-01T00:11:03.621Z,24.77
2016-09-01T00:11:37.918Z,24.64
2016-09-01T00:12:12.226Z,24.64
2016-09-01T00:12:46.534Z,24.59
2016-09-01T00:13:20.822Z,24.77
2016-09-01T00:13:55.169Z,24.64
2016-09-01T00:14:29.459Z,24.66
2016-09-01T00:15:03.760Z,24.63
2016-09-01T00:15:38.044Z,24.59
2016-09-01T00:16:12.347Z,24.61
2016-09-01T00:16:46.641Z,24.63
2016-09-01T00:17:20.945Z,24.59
2016-09-01T00:17:55.249Z,24.64
2016-09-01T00:18:29.564Z,24.64
2016-09-01T00:19:03.861Z,24.59
2016-09-01T00:19:38.144Z,24.61
2016-09-01T00:20:12.433Z,24.61
2016-09-01T00:20:47.220Z,24.64
2016-09-01T00:21:21.509Z,24.64
2016-09-01T00:21:55.793Z,24.64
2016-09-01T00:22:30.099Z,24.52
2016-09-01T00:23:04.379Z,24.61
2016-09-01T00:23:38.668Z,24.59
2016-09-01T00:24:12.938Z,24.52
2016-09-01T00:24:47.232Z,24.63
2016-09-01T00:25:21.529Z,24.52
2016-09-01T00:25:55.854Z,24.54
2016-09-01T00:26:30.140Z,24.58
2016-09-01T00:27:04.432Z,24.61
2016-09-01T00:27:38.729Z,24.58
2016-09-01T00:28:13.017Z,24.48
2016-09-01T00:28:47.312Z,24.52
2016-09-01T00:29:21.622Z,24.59
2016-09-01T00:29:55.900Z,24.49
2016-09-01T00:30:30.196Z,24.54
2016-09-01T00:31:04.495Z,24.54
2016-09-01T00:31:38.795Z,24.42
2016-09-01T00:32:13.099Z,24.45
2016-09-01T00:32:47.400Z,24.54
2016-09-01T00:33:21.690Z,24.49
2016-09-01T00:33:55.998Z,24.54
2016-09-01T00:34:30.291Z,24.48
2016-09-01T00:35:04.588Z,24.42
2016-09-01T00:35:38.884Z,24.48
2016-09-01T00:36:13.856Z,24.46
2016-09-01T00:36:48.138Z,24.52
2016-09-01T00:37:22.454Z,24.54
2016-09-01T00:37:56.746Z,24.49
2016-09-01T00:38:31.050Z,24.49
2016-09-01T00:39:05.341Z,24.52
2016-09-01T00:39:39.637Z,24.48
2016-09-01T00:40:13.927Z,24.51
2016-09-01T00:40:48.212Z,24.48
2016-09-01T00:41:22.503Z,24.44
2016-09-01T00:41:56.815Z,24.45
2016-09-01T00:42:31.135Z,24.49
2016-09-01T00:43:05.432Z,24.44
2016-09-01T00:43:39.722Z,24.4
2016-09-01T00:44:14.016Z,24.48
2016-09-01T00:44:48.305Z,24.46
2016-09-01T00:45:22.589Z,24.44
2016-09-01T00:45:56.933Z,24.45
2016-09-01T00:46:31.225Z,24.39
2016-09-01T00:47:05.526Z,24.39
2016-09-01T00:47:39.838Z,24.4
2016-09-01T00:48:14.127Z,24.44
2016-09-01T00:48:48.419Z,24.37
2016-09-01T00:49:22.700Z,24.3
2016-09-01T00:49:56.992Z,24.45
2016-09-01T00:50:31.278Z,24.39
2016-09-01T00:51:05.564Z,24.33
2016-09-01T00:51:39.852Z,24.39
2016-09-01T00:52:14.153Z,24.42
2016-09-01T00:52:48.452Z,24.39
2016-09-01T00:53:22.751Z,24.32
2016-09-01T00:53:57.045Z,24.29
2016-09-01T00:54:31.335Z,24.29
2016-09-01T00:55:05.624Z,24.4
2016-09-01T00:55:39.919Z,24.36
2016-09-01T00:56:14.214Z,24.3
2016-09-01T00:56:48.498Z,24.32
2016-09-01T00:57:22.798Z,24.33
2016-09-01T00:57:57.102Z,24.3
2016-09-01T00:58:31.404Z,24.29
2016-09-01T00:59:05.705Z,24.32
2016-09-01T00:59:40.002Z,24.29
2016-09-01T01:00:14.300Z,24.29
2016-09-01T01:00:48.609Z,24.3
2016-09-01T01:01:22.914Z,24.24
2016-09-01T01:01:57.218Z,24.26
2016-09-01T01:02:31.518Z,24.24
2016-09-01T01:03:05.828Z,24.3
2016-09-01T01:03:40.143Z,24.26
2016-09-01T01:04:14.439Z,24.27
2016-09-01T01:04:48.721Z,24.29
2016-09-01T01:05:23.026Z,24.22
2016-09-01T01:05:57.324Z,24.26
2016-09-01T01:06:31.625Z,24.29
2016-09-01T01:07:05.910Z,24.29
2016-09-01T01:07:40.229Z,24.26
2016-09-01T01:08:14.543Z,24.27
2016-09-01T01:08:48.819Z,24.27
2016-09-01T01:09:23.116Z,24.3
2016-09-01T01:09:57.406Z,24.3
2016-09-01T01:10:31.704Z,24.26
2016-09-01T01:11:05.993Z,24.26
2016-09-01T01:11:40.291Z,24.26
2016-09-01T01:12:14.593Z,24.27
2016-09-01T01:12:48.878Z,24.29
2016-09-01T01:13:23.185Z,24.22
2016-09-01T01:13:57.470Z,24.32
2016-09-01T01:14:31.754Z,24.22
2016-09-01T01:15:07.019Z,24.26
2016-09-01T01:15:41.299Z,24.26
2016-09-01T01:16:15.616Z,24.22
2016-09-01T01:16:49.905Z,24.21
2016-09-01T01:17:24.191Z,24.22
2016-09-01T01:17:58.493Z,24.22
2016-09-01T01:18:32.781Z,24.27
2016-09-01T01:19:07.071Z,24.24
2016-09-01T01:19:41.377Z,24.21
2016-09-01T01:20:15.680Z,24.21
2016-09-01T01:20:50.053Z,24.21
2016-09-01T01:21:24.353Z,24.14
2016-09-01T01:21:58.664Z,24.19
2016-09-01T01:22:32.953Z,24.17
2016-09-01T01:23:07.236Z,24.12
2016-09-01T01:23:41.506Z,24.24
2016-09-01T01:24:15.806Z,24.14
2016-09-01T01:24:50.118Z,24.21
2016-09-01T01:25:24.391Z,24.22
2016-09-01T01:25:58.691Z,24.21
2016-09-01T01:26:32.981Z,24.15
2016-09-01T01:27:07.280Z,24.17
2016-09-01T01:27:41.548Z,24.21
2016-09-01T01:28:15.859Z,24.18
2016-09-01T01:28:50.172Z,24.21
2016-09-01T01:29:24.481Z,24.18
2016-09-01T01:29:58.766Z,24.12
2016-09-01T01:30:33.111Z,24.18
2016-09-01T01:31:07.407Z,24.19
2016-09-01T01:31:41.701Z,24.11
2016-09-01T01:32:16.001Z,24.14
2016-09-01T01:32:50.306Z,24.18
2016-09-01T01:33:24.617Z,24.18
2016-09-01T01:33:58.916Z,24.17
2016-09-01T01:34:33.252Z,24.12
2016-09-01T01:35:07.534Z,24.12
2016-09-01T01:35:41.821Z,24.07
2016-09-01T01:36:16.302Z,24.17
2016-09-01T01:36:50.604Z,24.18
2016-09-01T01:37:24.927Z,24.18
2016-09-01T01:37:59.204Z,24.12
2016-09-01T01:38:33.511Z,24.08
2016-09-01T01:39:07.793Z,24.18
2016-09-01T01:39:42.062Z,24.12
2016-09-01T01:40:16.357Z,24.14
2016-09-01T01:40:50.662Z,24.11
2016-09-01T01:41:24.948Z,24.08
2016-09-01T01:41:59.241Z,24.08
2016-09-01T01:42:33.532Z,24.12
2016-09-01T01:43:07.832Z,24.09
2016-09-01T01:43:42.131Z,24.02
2016-09-01T01:44:16.431Z,24.07
2016-09-01T01:44:50.725Z,24.09
2016-09-01T01:45:25.011Z,24.04
2016-09-01T01:45:59.309Z,24.03
2016-09-01T01:46:33.631Z,24.04
2016-09-01T01:47:07.940Z,24.07
2016-09-01T01:47:42.239Z,24.14
2016-09-01T01:48:16.543Z,24.04
2016-09-01T01:48:50.833Z,24.08
2016-09-01T01:49:25.131Z,24.12
2016-09-01T01:49:59.438Z,24.09
2016-09-01T01:50:33.741Z,24.04
2016-09-01T01:51:08.047Z,24.09
2016-09-01T01:51:42.344Z,24.04
2016-09-01T01:52:16.639Z,24.03
2016-09-01T01:52:50.928Z,24.11
2016-09-01T01:53:25.232Z,24.08
2016-09-01T01:53:59.510Z,24.12
2016-09-01T01:54:33.822Z,24.04
2016-09-01T01:55:08.107Z,24.02
2016-09-01T01:55:42.414Z,24.03
2016-09-01T01:56:16.722Z,24.12
2016-09-01T01:56:51.008Z,24.02
2016-09-01T01:57:25.301Z,24.04
2016-09-01T01:57:59.593Z,23.99
2016-09-01T01:58:33.881Z,24.03
2016-09-01T01:59:08.210Z,24
2016-09-01T01:59:42.504Z,24.02
2016-09-01T02:00:16.832Z,24
2016-09-01T02:00:51.771Z,23.97
2016-09-01T02:01:26.053Z,23.97
2016-09-01T02:02:00.356Z,23.97
2016-09-01T02:02:34.633Z,23.97
2016-09-01T02:03:08.919Z,23.99
2016-09-01T02:03:43.219Z,24.03
2016-09-01T02:04:17.514Z,23.96
2016-09-01T02:04:51.800Z,23.92
2016-09-01T02:05:26.079Z,23.94
2016-09-01T02:06:00.381Z,23.92
2016-09-01T02:06:34.711Z,23.94
2016-09-01T02:07:09.005Z,23.96
2016-09-01T02:07:43.293Z,23.93
2016-09-01T02:08:17.587Z,23.94
2016-09-01T02:08:51.889Z,23.97
2016-09-01T02:09:26.177Z,23.94
2016-09-01T02:10:00.497Z,23.94
2016-09-01T02:10:34.790Z,23.97
2016-09-01T02:11:09.087Z,23.94
2016-09-01T02:11:43.364Z,23.92
2016-09-01T02:12:17.657Z,23.99
2016-09-01T02:12:51.946Z,23.99
2016-09-01T02:13:26.242Z,23.97
2016-09-01T02:14:00.527Z,24
2016-09-01T02:14:34.854Z,23.92
2016-09-01T02:15:09.155Z,24.02
2016-09-01T02:15:43.725Z,23.96
2016-09-01T02:16:18.029Z,23.9
2016-09-01T02:16:52.316Z,23.92
2016-09-01T02:17:26.604Z,23.9
2016-09-01T02:18:00.896Z,23.94
2016-09-01T02:18:35.180Z,23.9
2016-09-01T02:19:09.463Z,23.87
2016-09-01T02:19:43.775Z,23.96
2016-09-01T02:20:18.057Z,23.94
2016-09-01T02:20:52.351Z,23.93
2016-09-01T02:21:26.633Z,23.96
2016-09-01T02:22:00.914Z,23.92
2016-09-01T02:22:35.228Z,23.9
2016-09-01T02:23:09.525Z,23.96
2016-09-01T02:23:43.828Z,23.84
2016-09-01T02:24:18.128Z,23.9
2016-09-01T02:24:52.426Z,23.92
2016-09-01T02:25:26.716Z,23.87
2016-09-01T02:26:01.016Z,23.84
2016-09-01T02:26:35.327Z,23.89
2016-09-01T02:27:09.619Z,23.79
2016-09-01T02:27:43.904Z,23.79
2016-09-01T02:28:18.206Z,23.78
2016-09-01T02:28:52.512Z,23.87
2016-09-01T02:29:26.804Z,23.89
2016-09-01T02:30:01.093Z,23.81
2016-09-01T02:30:35.383Z,23.84
2016-09-01T02:31:09.672Z,23.84
2016-09-01T02:31:43.950Z,23.74
2016-09-01T02:32:18.269Z,23.84
2016-09-01T02:32:52.565Z,23.77
2016-09-01T02:33:26.856Z,23.84
2016-09-01T02:34:01.156Z,23.9
2016-09-01T02:34:35.437Z,23.84
2016-09-01T02:35:09.717Z,23.85
2016-09-01T02:35:44.029Z,23.84
2016-09-01T02:36:18.328Z,23.87
2016-09-01T02:36:53.576Z,23.78
2016-09-01T02:37:27.857Z,23.77
2016-09-01T02:38:02.153Z,23.85
2016-09-01T02:38:36.471Z,23.84
2016-09-01T02:39:10.775Z,23.75
2016-09-01T02:39:45.111Z,23.82
2016-09-01T02:40:19.444Z,23.77
2016-09-01T02:40:54.264Z,23.79
2016-09-01T02:41:28.588Z,23.78
2016-09-01T02:42:02.884Z,23.77
2016-09-01T02:42:37.156Z,23.79
2016-09-01T02:43:11.451Z,23.74
2016-09-01T02:43:45.736Z,23.75
2016-09-01T02:44:20.047Z,23.74
2016-09-01T02:44:54.344Z,23.72
2016-09-01T02:45:28.640Z,23.72
2016-09-01T02:46:02.929Z,23.74
2016-09-01T02:46:37.227Z,23.78
2016-09-01T02:47:11.526Z,23.74
2016-09-01T02:47:45.859Z,23.78
2016-09-01T02:48:20.155Z,23.78
2016-09-01T02:48:54.448Z,23.7
2016-09-01T02:49:28.729Z,23.72
2016-09-01T02:50:03.036Z,23.77
2016-09-01T02:50:37.335Z,23.74
2016-09-01T02:51:11.627Z,23.75
2016-09-01T02:51:45.908Z,23.71
2016-09-01T02:52:20.208Z,23.71
2016-09-01T02:52:54.494Z,23.72
2016-09-01T02:53:28.783Z,23.72
2016-09-01T02:54:03.076Z,23.67
2016-09-01T02:54:37.371Z,23.71
2016-09-01T02:55:11.659Z,23.74
2016-09-01T02:55:45.972Z,23.7
2016-09-01T02:56:20.263Z,23.74
2016-09-01T02:56:54.563Z,23.7
2016-09-01T02:57:28.853Z,23.62
2016-09-01T02:58:03.161Z,23.71
2016-09-01T02:58:37.453Z,23.72
2016-09-01T02:59:11.750Z,23.67
2016-09-01T02:59:46.054Z,23.62
2016-09-01T03:00:20.337Z,23.7
2016-09-01T03:00:54.728Z,23.67
2016-09-01T03:01:29.001Z,23.66
2016-09-01T03:02:03.291Z,23.71
2016-09-01T03:02:37.570Z,23.66
2016-09-01T03:03:11.867Z,23.7
2016-09-01T03:03:46.178Z,23.72
2016-09-01T03:04:20.460Z,23.74
2016-09-01T03:04:54.778Z,23.66
2016-09-01T03:05:29.087Z,23.72
2016-09-01T03:06:03.372Z,23.67
2016-09-01T03:06:37.662Z,23.67
2016-09-01T03:07:11.966Z,23.66
2016-09-01T03:07:46.255Z,23.67
2016-09-01T03:08:20.551Z,23.7
2016-09-01T03:08:54.847Z,23.67
2016-09-01T03:09:29.142Z,23.64
2016-09-01T03:10:03.439Z,23.6
2016-09-01T03:10:37.723Z,23.66
2016-09-01T03:11:12.021Z,23.63
2016-09-01T03:11:46.319Z,23.64
2016-09-01T03:12:20.621Z,23.64
2016-09-01T03:12:54.917Z,23.6
2016-09-01T03:13:29.204Z,23.6
2016-09-01T03:14:03.520Z,23.59
2016-09-01T03:14:37.805Z,23.62
2016-09-01T03:15:12.098Z,23.62
2016-09-01T03:15:46.397Z,23.6
2016-09-01T03:16:20.691Z,23.59
2016-09-01T03:16:55.001Z,23.57
2016-09-01T03:17:29.298Z,23.6
2016-09-01T03:18:03.614Z,23.63
2016-09-01T03:18:37.901Z,23.6
2016-09-01T03:19:12.185Z,23.57
2016-09-01T03:19:46.476Z,23.6
2016-09-01T03:20:20.771Z,23.57
2016-09-01T03:20:55.176Z,23.53
2016-09-01T03:21:29.459Z,23.53
2016-09-01T03:22:03.750Z,23.53
2016-09-01T03:22:38.067Z,23.55
2016-09-01T03:23:12.372Z,23.6
2016-09-01T03:23:46.663Z,23.63
2016-09-01T03:24:20.942Z,23.62
2016-09-01T03:24:55.230Z,23.62
2016-09-01T03:25:29.510Z,23.59
2016-09-01T03:26:03.793Z,23.56
2016-09-01T03:26:38.100Z,23.53
2016-09-01T03:27:12.391Z,23.57
2016-09-01T03:27:46.670Z,23.57
2016-09-01T03:28:20.958Z,23.56
2016-09-01T03:28:55.258Z,23.57
2016-09-01T03:29:29.538Z,23.57
2016-09-01T03:30:03.832Z,23.6
2016-09-01T03:30:38.127Z,23.5
2016-09-01T03:31:12.431Z,23.53
2016-09-01T03:31:46.779Z,23.59
2016-09-01T03:32:21.077Z,23.48
2016-09-01T03:32:55.360Z,23.48
2016-09-01T03:33:29.628Z,23.59
2016-09-01T03:34:03.930Z,23.57
2016-09-01T03:34:38.236Z,23.52
2016-09-01T03:35:12.542Z,23.53
2016-09-01T03:35:46.837Z,23.55
2016-09-01T03:36:21.122Z,23.52
2016-09-01T03:36:55.424Z,23.55
2016-09-01T03:37:29.714Z,23.52
2016-09-01T03:38:03.999Z,23.48
2016-09-01T03:38:38.293Z,23.47
2016-09-01T03:39:12.585Z,23.47
2016-09-01T03:39:46.868Z,23.56
2016-09-01T03:40:21.164Z,23.56
2016-09-01T03:40:55.456Z,23.52
2016-09-01T03:41:29.746Z,23.52
2016-09-01T03:42:04.041Z,23.48
2016-09-01T03:42:38.327Z,23.5
2016-09-01T03:43:12.614Z,23.44
2016-09-01T03:43:46.896Z,23.45
2016-09-01T03:44:21.206Z,23.45
2016-09-01T03:44:55.506Z,23.47
2016-09-01T03:45:29.783Z,23.45
2016-09-01T03:46:04.059Z,23.48
2016-09-01T03:46:38.363Z,23.42
2016-09-01T03:47:12.647Z,23.44
2016-09-01T03:47:46.948Z,23.48
2016-09-01T03:48:21.250Z,23.45
2016-09-01T03:48:55.546Z,23.44
2016-09-01T03:49:29.863Z,23.41
2016-09-01T03:50:04.167Z,23.47
2016-09-01T03:50:38.731Z,23.45
2016-09-01T03:51:13.032Z,23.44
2016-09-01T03:51:47.335Z,23.48
2016-09-01T03:52:21.630Z,23.47
2016-09-01T03:52:55.900Z,23.42
2016-09-01T03:53:30.177Z,23.48
2016-09-01T03:54:04.466Z,23.47
2016-09-01T03:54:38.762Z,23.45
2016-09-01T03:55:13.075Z,23.48
2016-09-01T03:55:47.388Z,23.38
2016-09-01T03:56:21.692Z,23.42
2016-09-01T03:56:56.010Z,23.44
2016-09-01T03:57:30.294Z,23.35
2016-09-01T03:58:04.597Z,23.38
2016-09-01T03:58:38.900Z,23.44
2016-09-01T03:59:13.194Z,23.44
2016-09-01T03:59:47.503Z,23.44
2016-09-01T04:00:21.794Z,23.44
2016-09-01T04:00:56.085Z,23.4
2016-09-01T04:01:30.384Z,23.41
2016-09-01T04:02:04.668Z,23.44
2016-09-01T04:02:38.964Z,23.38
2016-09-01T04:03:13.274Z,23.29
2016-09-01T04:03:47.565Z,23.41
2016-09-01T04:04:21.867Z,23.42
2016-09-01T04:04:56.153Z,23.42
2016-09-01T04:05:30.433Z,23.32
2016-09-01T04:06:04.739Z,23.41
2016-09-01T04:06:39.009Z,23.41
2016-09-01T04:07:13.358Z,23.44
2016-09-01T04:07:47.663Z,23.44
2016-09-01T04:08:21.975Z,23.44
2016-09-01T04:08:56.270Z,23.41
2016-09-01T04:09:30.549Z,23.37
2016-09-01T04:10:04.845Z,23.4
2016-09-01T04:10:39.168Z,23.42
2016-09-01T04:11:13.461Z,23.4
2016-09-01T04:11:47.762Z,23.37
2016-09-01T04:12:22.039Z,23.38
2016-09-01T04:12:56.339Z,23.4
2016-09-01T04:13:30.631Z,23.42
2016-09-01T04:14:04.922Z,23.4
2016-09-01T04:14:39.255Z,23.37
2016-09-01T04:15:13.549Z,23.38
2016-09-01T04:15:47.853Z,23.4
2016-09-01T04:16:22.158Z,23.38
2016-09-01T04:16:56.488Z,23.4
2016-09-01T04:17:30.789Z,23.4
2016-09-01T04:18:05.074Z,23.41
2016-09-01T04:18:39.347Z,23.4
2016-09-01T04:19:13.644Z,23.44
2016-09-01T04:19:47.962Z,23.44
2016-09-01T04:20:22.255Z,23.41
2016-09-01T04:20:56.531Z,23.37
2016-09-01T04:21:30.806Z,23.4
2016-09-01T04:22:05.096Z,23.35
2016-09-01T04:22:39.398Z,23.38
2016-09-01T04:23:14.863Z,23.4
2016-09-01T04:23:49.159Z,23.42
2016-09-01T04:24:23.452Z,23.47
2016-09-01T04:24:57.734Z,23.38
2016-09-01T04:25:32.024Z,23.44
2016-09-01T04:26:06.320Z,23.4
2016-09-01T04:26:40.601Z,23.4
2016-09-01T04:27:14.887Z,23.38
2016-09-01T04:27:49.190Z,23.45
2016-09-01T04:28:23.486Z,23.44
2016-09-01T04:28:57.781Z,23.29
2016-09-01T04:29:32.108Z,23.37
2016-09-01T04:30:06.394Z,23.28
2016-09-01T04:30:40.691Z,23.26
2016-09-01T04:31:14.978Z,23.38
2016-09-01T04:31:49.264Z,23.28
2016-09-01T04:32:23.548Z,23.32
2016-09-01T04:32:57.855Z,23.26
2016-09-01T04:33:32.138Z,23.25
2016-09-01T04:34:06.434Z,23.38
2016-09-01T04:34:40.739Z,23.4
2016-09-01T04:35:15.229Z,23.29
2016-09-01T04:35:49.540Z,23.41
2016-09-01T04:36:24.058Z,23.22
2016-09-01T04:36:58.359Z,23.32
2016-09-01T04:37:32.640Z,23.25
2016-09-01T04:38:06.935Z,23.22
2016-09-01T04:38:41.228Z,23.24
2016-09-01T04:39:15.534Z,23.21
2016-09-01T04:39:49.836Z,23.22
2016-09-01T04:40:24.111Z,23.25
2016-09-01T04:40:58.388Z,23.16
2016-09-01T04:41:32.688Z,23.22
2016-09-01T04:42:06.959Z,23.22
2016-09-01T04:42:41.248Z,23.26
2016-09-01T04:43:15.539Z,23.21
2016-09-01T04:43:49.834Z,23.22
2016-09-01T04:44:24.143Z,23.34
2016-09-01T04:44:58.441Z,23.25
2016-09-01T04:45:32.735Z,23.28
2016-09-01T04:46:07.021Z,23.26
2016-09-01T04:46:41.315Z,23.28
2016-09-01T04:47:15.636Z,23.32
2016-09-01T04:47:49.928Z,23.21
2016-09-01T04:48:24.210Z,23.25
2016-09-01T04:48:58.512Z,23.26
2016-09-01T04:49:32.816Z,23.24
2016-09-01T04:50:07.097Z,23.26
2016-09-01T04:50:41.419Z,23.34
2016-09-01T04:51:15.710Z,23.28
2016-09-01T04:51:49.991Z,23.25
2016-09-01T04:52:24.301Z,23.24
2016-09-01T04:52:58.583Z,23.22
2016-09-01T04:53:32.872Z,23.34
2016-09-01T04:54:07.196Z,23.29
2016-09-01T04:54:41.494Z,23.26
2016-09-01T04:55:16.023Z,23.25
2016-09-01T04:55:50.356Z,23.26
2016-09-01T04:56:24.661Z,23.25
2016-09-01T04:56:58.945Z,23.26
2016-09-01T04:57:33.248Z,23.28
2016-09-01T04:58:07.543Z,23.25
2016-09-01T04:58:41.835Z,23.28
2016-09-01T04:59:16.253Z,23.21
2016-09-01T04:59:50.543Z,23.19
2016-09-01T05:00:24.845Z,23.26
2016-09-01T05:00:59.200Z,23.24
2016-09-01T05:01:33.500Z,23.28
2016-09-01T05:02:07.805Z,23.28
2016-09-01T05:02:42.093Z,23.24
2016-09-01T05:03:16.370Z,23.28
2016-09-01T05:03:50.675Z,23.25
2016-09-01T05:04:24.964Z,23.28
2016-09-01T05:04:59.257Z,23.21
2016-09-01T05:05:33.616Z,23.26
2016-09-01T05:06:07.932Z,23.25
2016-09-01T05:06:42.226Z,23.34
2016-09-01T05:07:16.510Z,23.19
2016-09-01T05:07:50.804Z,23.26
2016-09-01T05:08:25.094Z,23.26
2016-09-01T05:08:59.388Z,23.25
2016-09-01T05:09:33.692Z,23.28
2016-09-01T05:10:07.984Z,23.28
2016-09-01T05:10:42.467Z,23.21
2016-09-01T05:11:16.780Z,23.28
2016-09-01T05:11:51.090Z,23.29
2016-09-01T05:12:25.386Z,23.21
2016-09-01T05:12:59.686Z,23.29
2016-09-01T05:13:33.986Z,23.24
2016-09-01T05:14:08.265Z,23.22
2016-09-01T05:14:42.569Z,23.25
2016-09-01T05:15:16.865Z,23.28
2016-09-01T05:15:51.139Z,23.29
2016-09-01T05:16:25.785Z,23.29
2016-09-01T05:17:00.100Z,23.26
2016-09-01T05:17:34.377Z,23.19
2016-09-01T05:18:08.665Z,23.22
2016-09-01T05:18:42.957Z,23.25
2016-09-01T05:19:17.265Z,23.28
2016-09-01T05:19:51.557Z,23.25
2016-09-01T05:20:25.849Z,23.28
2016-09-01T05:21:00.148Z,23.29
2016-09-01T05:21:34.436Z,23.29
2016-09-01T05:22:09.935Z,23.21
2016-09-01T05:22:44.235Z,23.28
2016-09-01T05:23:18.514Z,23.22
2016-09-01T05:23:52.801Z,23.24
2016-09-01T05:24:27.102Z,23.28
2016-09-01T05:25:01.382Z,23.25
2016-09-01T05:25:36.208Z,23.28
2016-09-01T05:26:10.502Z,23.25
2016-09-01T05:26:44.784Z,23.25
2016-09-01T05:27:19.115Z,23.28
2016-09-01T05:27:53.553Z,23.22
2016-09-01T05:28:27.891Z,23.26
2016-09-01T05:29:02.191Z,23.21
2016-09-01T05:29:36.472Z,23.21
2016-09-01T05:30:10.783Z,23.22
2016-09-01T05:30:45.516Z,23.32
2016-09-01T05:31:19.860Z,23.21
2016-09-01T05:31:54.471Z,23.28
2016-09-01T05:32:28.755Z,23.25
2016-09-01T05:33:04.037Z,23.21
2016-09-01T05:33:38.683Z,23.32
2016-09-01T05:34:13.598Z,23.26
2016-09-01T05:34:48.806Z,23.28
2016-09-01T05:35:23.261Z,23.35
2016-09-01T05:35:57.670Z,23.4
2016-09-01T05:36:32.019Z,23.29
2016-09-01T05:37:06.352Z,23.4
2016-09-01T05:37:40.646Z,23.32
2016-09-01T05:38:15.126Z,23.28
2016-09-01T05:38:49.430Z,23.41
2016-09-01T05:39:23.716Z,23.34
2016-09-01T05:39:58.018Z,23.28
2016-09-01T05:40:32.325Z,23.37
2016-09-01T05:41:06.653Z,23.37
2016-09-01T05:41:40.968Z,23.38
2016-09-01T05:42:15.338Z,23.42
2016-09-01T05:42:49.656Z,23.37
2016-09-01T05:43:24.589Z,23.38
2016-09-01T05:43:58.929Z,23.4
2016-09-01T05:44:33.218Z,23.38
2016-09-01T05:45:07.504Z,23.37
2016-09-01T05:45:42.413Z,23.41
2016-09-01T05:46:16.703Z,23.41
2016-09-01T05:46:51.004Z,23.4
2016-09-01T05:47:25.297Z,23.37
2016-09-01T05:47:59.633Z,23.35
2016-09-01T05:48:33.982Z,23.4
2016-09-01T05:49:08.329Z,23.44
2016-09-01T05:49:42.625Z,23.42
2016-09-01T05:50:16.894Z,23.38
2016-09-01T05:50:51.189Z,23.35
2016-09-01T05:51:25.508Z,23.38
2016-09-01T05:51:59.792Z,23.44
2016-09-01T05:52:34.676Z,23.38
2016-09-01T05:53:09.292Z,23.41
2016-09-01T05:53:43.882Z,23.29
2016-09-01T05:54:18.443Z,23.4
2016-09-01T05:54:53.017Z,23.42
2016-09-01T05:55:27.573Z,23.45
2016-09-01T05:56:02.140Z,23.41
2016-09-01T05:56:36.704Z,23.42
2016-09-01T05:57:11.291Z,23.38
2016-09-01T05:57:45.876Z,23.47
2016-09-01T05:58:20.421Z,23.45
2016-09-01T05:58:54.752Z,23.42
2016-09-01T05:59:29.071Z,23.45
2016-09-01T06:00:03.354Z,23.48
2016-09-01T06:00:38.909Z,23.42
2016-09-01T06:01:13.208Z,23.44
2016-09-01T06:01:47.504Z,23.45
2016-09-01T06:02:21.844Z,23.59
2016-09-01T06:02:56.139Z,23.59
2016-09-01T06:03:30.433Z,23.5
2016-09-01T06:04:04.717Z,23.6
2016-09-01T06:04:38.993Z,23.53
2016-09-01T06:05:13.305Z,23.53
2016-09-01T06:05:47.596Z,23.48
2016-09-01T06:06:21.901Z,23.53
2016-09-01T06:06:56.192Z,23.64
2016-09-01T06:07:30.496Z,23.6
2016-09-01T06:08:04.815Z,23.56
2016-09-01T06:08:39.100Z,23.62
2016-09-01T06:09:13.394Z,23.62
2016-09-01T06:09:47.696Z,23.64
2016-09-01T06:10:22.026Z,23.67
2016-09-01T06:10:56.352Z,23.67
2016-09-01T06:11:31.165Z,23.71
2016-09-01T06:12:05.472Z,23.72
2016-09-01T06:12:39.765Z,23.67
2016-09-01T06:13:14.086Z,23.74
2016-09-01T06:13:48.387Z,23.75
2016-09-01T06:14:22.725Z,23.74
2016-09-01T06:14:58.792Z,23.77
2016-09-01T06:15:33.094Z,23.78
2016-09-01T06:16:07.403Z,23.75
2016-09-01T06:16:41.704Z,23.82
2016-09-01T06:17:16.000Z,23.84
2016-09-01T06:17:51.250Z,23.85
2016-09-01T06:18:25.606Z,23.77
2016-09-01T06:18:59.899Z,23.89
2016-09-01T06:19:34.194Z,23.92
2016-09-01T06:20:08.486Z,23.89
2016-09-01T06:20:43.387Z,23.96
2016-09-01T06:21:17.754Z,23.89
2016-09-01T06:21:52.469Z,23.97
2016-09-01T06:22:27.680Z,24
2016-09-01T06:23:02.158Z,23.96
2016-09-01T06:23:36.439Z,23.87
2016-09-01T06:24:10.731Z,23.97
2016-09-01T06:24:45.030Z,24.02
2016-09-01T06:25:19.456Z,23.99
2016-09-01T06:25:53.768Z,23.99
2016-09-01T06:26:28.171Z,24.09
2016-09-01T06:27:03.259Z,24.07
2016-09-01T06:27:37.555Z,24.11
2016-09-01T06:28:11.837Z,24.04
2016-09-01T06:28:46.138Z,24.07
2016-09-01T06:29:20.491Z,24.15
2016-09-01T06:29:54.839Z,24.07
2016-09-01T06:30:29.159Z,24.17
2016-09-01T06:31:04.190Z,24.12
2016-09-01T06:31:38.499Z,24.18
2016-09-01T06:32:13.011Z,24.21
2016-09-01T06:32:47.729Z,24.18
2016-09-01T06:33:22.011Z,24.21
2016-09-01T06:33:56.310Z,24.21
2016-09-01T06:34:30.619Z,24.3
2016-09-01T06:35:04.914Z,24.19
2016-09-01T06:35:39.250Z,24.29
2016-09-01T06:36:13.742Z,24.26
2016-09-01T06:36:48.040Z,24.27
2016-09-01T06:37:22.350Z,24.29
2016-09-01T06:37:56.655Z,24.27
2016-09-01T06:38:30.955Z,24.37
2016-09-01T06:39:05.431Z,24.3
2016-09-01T06:39:39.747Z,24.33
2016-09-01T06:40:14.037Z,24.4
2016-09-01T06:40:48.341Z,24.42
2016-09-01T06:41:22.636Z,24.37
2016-09-01T06:41:56.951Z,24.42
2016-09-01T06:42:31.243Z,24.44
2016-09-01T06:43:05.548Z,24.49
2016-09-01T06:43:39.837Z,24.52
2016-09-01T06:44:14.353Z,24.45
2016-09-01T06:44:48.638Z,24.49
2016-09-01T06:45:23.480Z,24.54
2016-09-01T06:45:57.782Z,24.55
2016-09-01T06:46:32.096Z,24.49
2016-09-01T06:47:06.404Z,24.58
2016-09-01T06:47:40.713Z,24.63
2016-09-01T06:48:15.022Z,24.58
2016-09-01T06:48:49.329Z,24.66
2016-09-01T06:49:23.633Z,24.69
2016-09-01T06:49:58.419Z,24.75
2016-09-01T06:50:32.758Z,24.7
2016-09-01T06:51:07.043Z,24.75
2016-09-01T06:51:41.359Z,24.71
2016-09-01T06:52:15.662Z,24.8
2016-09-01T06:52:49.947Z,24.82
2016-09-01T06:53:24.243Z,24.75
2016-09-01T06:53:58.579Z,24.77
2016-09-01T06:54:33.649Z,24.9
2016-09-01T06:55:07.935Z,24.86
2016-09-01T06:55:42.919Z,24.9
2016-09-01T06:56:17.195Z,24.86
2016-09-01T06:56:51.494Z,24.93
2016-09-01T06:57:25.787Z,24.89
2016-09-01T06:58:00.067Z,24.96
2016-09-01T06:58:34.372Z,24.96
2016-09-01T06:59:08.694Z,25.02
2016-09-01T06:59:42.980Z,25.02
2016-09-01T07:00:17.281Z,25.02
2016-09-01T07:00:51.597Z,25
2016-09-01T07:01:25.887Z,25.02
2016-09-01T07:02:00.305Z,25.01
2016-09-01T07:02:34.607Z,25.07
2016-09-01T07:03:08.901Z,25
2016-09-01T07:03:43.204Z,25.09
2016-09-01T07:04:17.494Z,25.11
2016-09-01T07:04:51.796Z,25.12
2016-09-01T07:05:26.191Z,25.12
2016-09-01T07:06:00.476Z,25.11
2016-09-01T07:06:34.808Z,25.14
2016-09-01T07:07:10.447Z,25.12
2016-09-01T07:07:44.758Z,25.14
2016-09-01T07:08:19.065Z,25.26
2016-09-01T07:08:53.363Z,25.2
2016-09-01T07:09:27.639Z,25.23
2016-09-01T07:10:01.952Z,25.23
2016-09-01T07:10:36.325Z,25.27
2016-09-01T07:11:10.621Z,25.29
2016-09-01T07:11:44.921Z,25.38
2016-09-01T07:12:19.208Z,25.37
2016-09-01T07:12:53.644Z,25.33
2016-09-01T07:13:27.921Z,25.38
2016-09-01T07:14:02.660Z,25.37
2016-09-01T07:14:36.950Z,25.39
2016-09-01T07:15:11.255Z,25.34
2016-09-01T07:15:45.537Z,25.3
2016-09-01T07:16:19.884Z,25.38
2016-09-01T07:16:54.246Z,25.34
2016-09-01T07:17:28.564Z,25.29
2016-09-01T07:18:02.869Z,25.38
2016-09-01T07:18:37.166Z,25.37
2016-09-01T07:19:11.469Z,25.39
2016-09-01T07:19:45.764Z,25.48
2016-09-01T07:20:20.038Z,25.47
2016-09-01T07:20:54.342Z,25.47
2016-09-01T07:21:28.757Z,25.41
2016-09-01T07:22:03.057Z,25.45
2016-09-01T07:22:37.543Z,25.54
2016-09-01T07:23:12.713Z,25.52
2016-09-01T07:23:47.049Z,25.6